Time;durP1;ratioP1;P1;durP2;ratioP2;P2;SDS_P1;SDS_P2;PMS_P1;PMS_P2;Temp;Humidity;BMP_temperature;BMP_pressure;BME280_temperature;BME280_humidity;BME280_pressure;Samples;Min_cycle;Max_cycle;Signal;HPM_P1;HPM_P2
2022/01/25 00:26:35;;;;;;;83.70;50.48;;;21.80;94.60;;;;;;1827394;76;21224;-85
2022/01/25 00:31:32;;;;;;;77.03;49.27;;;21.80;94.60;;;;;;1823660;76;21224;-84
2022/01/25 00:34:03;;;;;;;77.80;49.88;;;21.90;94.60;;;;;;1808893;78;21705;-86
2022/01/25 00:36:34;;;;;;;78.25;51.95;;;22.00;94.30;;;;;;1808714;77;21267;-83
2022/01/25 00:39:06;;;;;;;79.40;50.70;;;22.10;94.30;;;;;;1813951;77;21147;-85
2022/01/25 00:41:36;;;;;;;77.92;48.70;;;22.10;94.30;;;;;;1831070;76;21105;-85
2022/01/25 00:44:10;;;;;;;79.42;50.33;;;22.20;94.30;;;;;;1821981;77;21181;-86
2022/01/25 00:46:40;;;;;;;75.00;49.23;;;22.20;94.30;;;;;;1822320;77;21141;-86
2022/01/25 00:49:14;;;;;;;83.37;50.65;;;22.30;94.10;;;;;;1788846;78;21160;-85
2022/01/25 00:54:26;;;;;;;75.62;51.33;;;22.40;94.00;;;;;;1830298;77;21258;-86
2022/01/25 00:56:49;;;;;;;76.82;50.80;;;22.40;93.90;;;;;;1839115;77;21380;-85
2022/01/25 00:59:22;;;;;;;75.22;51.42;;;22.40;93.90;;;;;;1801430;78;21245;-85
2022/01/25 01:01:55;;;;;;;74.85;48.63;;;22.50;93.80;;;;;;1818104;76;21195;-85
2022/01/25 01:04:27;;;;;;;74.53;46.77;;;22.60;93.60;;;;;;1843996;76;21132;-85
2022/01/25 01:06:58;;;;;;;72.62;49.48;;;22.70;93.50;;;;;;1839514;76;21245;-84
2022/01/25 01:09:32;;;;;;;70.52;47.55;;;22.70;93.20;;;;;;1851537;76;21235;-85
2022/01/25 01:12:07;;;;;;;78.02;49.25;;;22.80;93.20;;;;;;1838120;77;21128;-84
2022/01/25 01:14:53;;;;;;;67.17;46.95;;;22.90;93.10;;;;;;1827969;77;21163;-85
2022/01/25 01:31:01;;;;;;;65.72;45.03;;;23.30;92.20;;;;;;1817208;77;21166;-72
2022/01/25 01:48:00;;;;;;;61.40;43.98;;;23.90;90.90;;;;;;1758819;79;21250;-73
2022/01/25 01:50:12;;;;;;;66.37;44.67;;;23.90;90.80;;;;;;1820472;77;21214;-72
2022/01/25 01:52:39;;;;;;;83.87;45.95;;;24.00;90.60;;;;;;1823168;76;21190;-71
2022/01/25 01:55:12;;;;;;;64.47;44.23;;;24.00;90.50;;;;;;1842979;76;21187;-72
2022/01/25 01:57:52;;;;;;;57.93;40.43;;;24.10;90.40;;;;;;1825781;77;21203;-72
2022/01/25 02:00:25;;;;;;;52.90;39.42;;;24.20;89.80;;;;;;1821871;76;21151;-72
2022/01/25 02:02:56;;;;;;;55.30;39.13;;;24.30;89.00;;;;;;1815077;77;21225;-72
2022/01/25 02:05:27;;;;;;;51.95;38.28;;;24.30;88.30;;;;;;1838558;75;21116;-72
2022/01/25 02:07:58;;;;;;;51.75;37.83;;;24.40;87.70;;;;;;1805753;77;21252;-72
2022/01/25 02:10:30;;;;;;;52.23;36.00;;;24.50;87.30;;;;;;1828920;76;21242;-72
2022/01/25 02:13:01;;;;;;;50.43;36.23;;;24.60;86.30;;;;;;1846726;76;21148;-71
2022/01/25 02:15:31;;;;;;;52.48;36.00;;;24.60;85.70;;;;;;1793750;77;21693;-72
2022/01/25 02:23:09;;;;;;;46.77;33.65;;;24.80;83.10;;;;;;1799756;77;21167;-72
2022/01/25 02:25:40;;;;;;;43.25;33.90;;;24.90;82.00;;;;;;1816783;77;21091;-71
2022/01/25 02:28:10;;;;;;;47.03;33.18;;;24.90;80.40;;;;;;1786371;78;21674;-72
2022/01/25 02:30:41;;;;;;;45.52;33.05;;;25.00;81.80;;;;;;1795068;78;21162;-71
2022/01/25 02:33:12;;;;;;;44.88;32.53;;;25.10;81.80;;;;;;1790556;79;21609;-72
2022/01/25 02:35:43;;;;;;;42.88;31.42;;;25.20;81.40;;;;;;1815606;77;21085;-72
2022/01/25 02:38:15;;;;;;;44.38;32.55;;;25.30;80.50;;;;;;1814319;76;21138;-71
2022/01/25 02:40:45;;;;;;;44.35;32.17;;;25.40;80.60;;;;;;1792405;79;21239;-72
2022/01/25 02:43:19;;;;;;;41.70;30.10;;;25.40;80.60;;;;;;1794303;78;21144;-72
2022/01/25 02:46:07;;;;;;;49.23;32.10;;;25.50;80.10;;;;;;1787627;78;21923;-72
2022/01/25 02:48:30;;;;;;;38.75;29.35;;;25.50;78.90;;;;;;1802635;78;21126;-72
2022/01/25 02:50:56;;;;;;;43.98;29.48;;;25.60;79.30;;;;;;1809724;77;21619;-74
2022/01/25 02:53:28;;;;;;;46.13;28.40;;;25.60;79.00;;;;;;1846602;75;21087;-72
2022/01/25 02:55:59;;;;;;;32.98;24.35;;;25.70;78.30;;;;;;1821577;76;21151;-72
2022/01/25 02:58:29;;;;;;;29.85;22.90;;;25.80;78.10;;;;;;1809695;76;21213;-72
2022/01/25 03:01:00;;;;;;;33.33;23.70;;;25.80;76.10;;;;;;1833433;76;21092;-73
2022/01/25 03:03:30;;;;;;;32.20;24.15;;;25.90;76.60;;;;;;1827462;75;21547;-71
2022/01/25 03:06:02;;;;;;;32.25;24.40;;;26.00;76.20;;;;;;1839839;77;21594;-74
2022/01/25 03:08:33;;;;;;;26.87;20.32;;;26.10;77.00;;;;;;1825240;77;21648;-73
2022/01/25 03:11:03;;;;;;;24.27;19.15;;;26.20;75.80;;;;;;1810045;77;21571;-73
2022/01/25 03:13:47;;;;;;;26.85;21.40;;;26.30;75.50;;;;;;1836755;77;21562;-73
2022/01/25 03:16:18;;;;;;;35.00;22.85;;;26.40;73.90;;;;;;1817087;77;21076;-73
2022/01/25 03:18:43;;;;;;;28.20;22.02;;;26.60;74.20;;;;;;1827050;77;21570;-73
2022/01/25 03:21:33;;;;;;;29.07;21.90;;;26.70;73.30;;;;;;1816177;77;21176;-72
2022/01/25 03:23:45;;;;;;;24.85;18.02;;;26.70;73.70;;;;;;1817162;77;21107;-73
2022/01/25 03:26:16;;;;;;;24.02;18.00;;;26.70;72.90;;;;;;1823497;76;21580;-73
2022/01/25 03:28:48;;;;;;;23.10;17.12;;;26.80;73.00;;;;;;1840686;77;21120;-72
2022/01/25 03:31:19;;;;;;;27.15;16.90;;;26.80;71.90;;;;;;1829380;77;21171;-73
2022/01/25 03:33:50;;;;;;;23.77;17.95;;;26.90;71.10;;;;;;1823976;77;21633;-73
2022/01/25 03:36:21;;;;;;;26.07;19.50;;;27.00;71.80;;;;;;1795941;78;21587;-73
2022/01/25 03:38:52;;;;;;;28.98;20.95;;;27.20;72.50;;;;;;1788366;77;21861;-73
2022/01/25 03:41:23;;;;;;;31.40;20.10;;;27.30;71.50;;;;;;1837601;77;21135;-75
2022/01/25 03:43:56;;;;;;;28.00;19.12;;;27.40;71.70;;;;;;1843085;76;21127;-72
2022/01/25 03:51:34;;;;;;;31.45;22.25;;;27.70;69.80;;;;;;1817297;77;21732;-73
2022/01/25 03:54:05;;;;;;;27.82;21.07;;;27.80;69.80;;;;;;1824061;77;21684;-73
2022/01/25 03:56:36;;;;;;;26.97;21.90;;;27.90;69.20;;;;;;1794129;77;21623;-73
2022/01/25 03:59:07;;;;;;;30.75;23.87;;;28.00;69.50;;;;;;1845655;76;21661;-73
2022/01/25 04:01:39;;;;;;;30.70;21.65;;;28.20;68.90;;;;;;1824258;76;21256;-72
2022/01/25 04:04:14;;;;;;;22.42;17.32;;;28.30;68.40;;;;;;1839694;76;21379;-72
2022/01/25 04:06:48;;;;;;;25.23;18.48;;;28.40;65.80;;;;;;1817600;77;21230;-72
2022/01/25 04:09:15;;;;;;;20.60;16.40;;;28.60;64.40;;;;;;1785001;78;21335;-72
2022/01/25 04:11:46;;;;;;;23.73;17.35;;;28.80;65.60;;;;;;1817691;77;21655;-72
2022/01/25 04:14:16;;;;;;;25.00;18.12;;;28.80;63.40;;;;;;1804677;77;21617;-74
2022/01/25 04:16:56;;;;;;;23.00;16.42;;;28.90;63.20;;;;;;1790886;77;21216;-72
2022/01/25 04:26:58;;;;;;;21.37;16.73;;;29.30;64.40;;;;;;1833758;77;21174;-73
2022/01/25 04:29:29;;;;;;;24.67;17.92;;;29.30;64.30;;;;;;1829183;77;21216;-73
2022/01/25 04:31:59;;;;;;;24.07;17.95;;;29.30;63.40;;;;;;1849037;76;21070;-73
2022/01/25 04:49:48;;;;;;;22.30;17.87;;;29.90;64.90;;;;;;1834982;76;21128;-72
2022/01/25 04:52:19;;;;;;;21.02;16.90;;;30.00;62.40;;;;;;1842096;76;21249;-73
2022/01/25 04:54:55;;;;;;;21.85;17.42;;;30.10;62.50;;;;;;1833171;76;22095;-72
2022/01/25 05:02:39;;;;;;;20.95;17.15;;;30.40;59.80;;;;;;1806702;77;21606;-72
2022/01/25 05:05:01;;;;;;;19.55;14.83;;;30.40;58.60;;;;;;1829505;76;21183;-72
2022/01/25 05:07:41;;;;;;;19.60;14.58;;;30.60;58.40;;;;;;1791599;78;21186;-72
2022/01/25 05:10:00;;;;;;;19.45;14.07;;;30.70;59.10;;;;;;1809298;77;21120;-72
2022/01/25 05:12:41;;;;;;;21.37;14.45;;;30.80;55.30;;;;;;1797213;78;21217;-72
2022/01/25 05:17:44;;;;;;;21.57;14.25;;;31.00;54.00;;;;;;1814850;77;21248;-72
2022/01/25 05:22:40;;;;;;;16.32;14.18;;;31.20;54.70;;;;;;1801346;78;21253;-72
2022/01/25 05:25:11;;;;;;;16.27;12.82;;;31.20;53.60;;;;;;1836530;76;21190;-73
2022/01/25 05:27:42;;;;;;;19.92;13.95;;;31.30;53.80;;;;;;1839175;77;21174;-73
2022/01/25 05:30:13;;;;;;;16.00;13.18;;;31.30;55.00;;;;;;1797636;78;21158;-73
2022/01/25 05:32:44;;;;;;;17.40;13.13;;;31.30;53.30;;;;;;1813094;76;21586;-73
2022/01/25 05:35:14;;;;;;;15.38;12.05;;;31.30;54.40;;;;;;1799844;78;21140;-73
2022/01/25 05:37:45;;;;;;;17.17;12.28;;;31.20;55.60;;;;;;1837176;76;21206;-73
2022/01/25 05:40:27;;;;;;;15.58;12.53;;;31.20;53.00;;;;;;1804898;77;21286;-73
2022/01/25 05:43:52;;;;;;;16.02;13.05;;;31.30;53.80;;;;;;1837977;76;21171;-72
2022/01/25 05:47:54;;;;;;;14.80;12.10;;;31.30;51.00;;;;;;1821641;77;21125;-73
2022/01/25 05:50:25;;;;;;;16.23;11.73;;;31.40;50.20;;;;;;1829454;77;21176;-73
2022/01/25 05:52:55;;;;;;;16.05;12.05;;;31.50;50.30;;;;;;1809145;77;21178;-72
2022/01/25 05:55:26;;;;;;;16.40;12.10;;;31.50;49.40;;;;;;1810350;76;21224;-72
2022/01/25 05:57:57;;;;;;;15.38;11.63;;;31.60;50.90;;;;;;1808783;77;21131;-72
2022/01/25 06:00:30;;;;;;;15.70;12.07;;;31.60;49.60;;;;;;1828113;76;21228;-73
2022/01/25 06:03:04;;;;;;;12.50;11.15;;;31.60;49.30;;;;;;1820392;77;21157;-72
2022/01/25 06:05:35;;;;;;;16.93;13.03;;;31.60;49.90;;;;;;1801447;78;21238;-72
2022/01/25 06:08:06;;;;;;;13.18;11.28;;;31.70;49.50;;;;;;1783249;77;21272;-73
2022/01/25 06:10:37;;;;;;;16.17;12.07;;;31.60;50.60;;;;;;1796966;78;21103;-73
2022/01/25 06:13:08;;;;;;;18.27;13.50;;;31.40;51.20;;;;;;1819892;76;21089;-72
2022/01/25 06:15:39;;;;;;;20.72;15.38;;;31.30;51.30;;;;;;1805320;77;21090;-73
2022/01/25 06:18:10;;;;;;;21.37;13.80;;;31.40;51.70;;;;;;1782344;79;21124;-73
2022/01/25 06:20:41;;;;;;;17.02;12.60;;;31.40;53.20;;;;;;1807318;77;21103;-73
2022/01/25 06:23:13;;;;;;;19.15;13.90;;;31.40;51.80;;;;;;1786936;78;21131;-72
2022/01/25 06:25:44;;;;;;;17.35;13.08;;;31.30;51.30;;;;;;1785620;78;21572;-72
2022/01/25 06:28:16;;;;;;;18.10;12.60;;;31.20;50.80;;;;;;1790746;78;21226;-72
2022/01/25 06:30:46;;;;;;;20.35;14.95;;;31.10;50.20;;;;;;1807704;78;21200;-71
2022/01/25 06:33:17;;;;;;;18.17;14.47;;;31.10;50.50;;;;;;1783894;77;21216;-72
2022/01/25 06:35:49;;;;;;;19.60;12.60;;;31.20;50.60;;;;;;1777122;78;21166;-72
2022/01/25 06:38:19;;;;;;;15.95;11.60;;;31.30;52.60;;;;;;1786485;78;21103;-72
2022/01/25 06:40:50;;;;;;;16.10;11.65;;;31.40;49.10;;;;;;1780034;78;21203;-73
2022/01/25 06:43:21;;;;;;;13.40;11.15;;;31.40;49.60;;;;;;1825224;77;22071;-73
2022/01/25 06:46:00;;;;;;;14.45;11.53;;;31.40;48.40;;;;;;1788652;79;21127;-73
2022/01/25 06:48:24;;;;;;;16.87;12.10;;;31.40;47.90;;;;;;1795994;78;21142;-73
2022/01/25 06:50:55;;;;;;;15.25;10.80;;;31.50;47.50;;;;;;1827854;77;21102;-73
2022/01/25 06:53:28;;;;;;;9.60;8.18;;;31.60;45.90;;;;;;1785435;79;21696;-73
2022/01/25 06:55:58;;;;;;;12.00;8.75;;;31.80;45.00;;;;;;1820117;76;21131;-73
2022/01/25 06:58:29;;;;;;;14.30;10.43;;;31.90;45.00;;;;;;1794502;77;21128;-73
2022/01/25 07:00:59;;;;;;;12.35;8.33;;;31.90;50.50;;;;;;1796029;79;21166;-73
2022/01/25 07:03:30;;;;;;;12.80;7.97;;;32.00;43.90;;;;;;1794677;77;21080;-73
2022/01/25 07:06:01;;;;;;;9.23;6.75;;;32.20;46.10;;;;;;1799227;77;21663;-73
2022/01/25 07:08:32;;;;;;;7.58;6.37;;;32.30;54.50;;;;;;1808023;78;21587;-72
2022/01/25 07:11:03;;;;;;;10.13;6.60;;;32.30;50.20;;;;;;1806624;77;21162;-72
2022/01/25 07:13:33;;;;;;;12.65;7.42;;;32.30;49.90;;;;;;1800129;78;21145;-73
2022/01/25 07:16:06;;;;;;;8.73;7.40;;;32.40;51.30;;;;;;1803465;77;21116;-72
2022/01/25 07:18:37;;;;;;;10.15;7.05;;;32.40;49.50;;;;;;1810326;76;21075;-73
2022/01/25 07:21:08;;;;;;;12.70;9.03;;;32.30;47.40;;;;;;1827338;76;21180;-72
2022/01/25 07:23:39;;;;;;;11.80;7.87;;;32.20;42.70;;;;;;1810798;77;21570;-72
2022/01/25 07:26:10;;;;;;;11.57;6.85;;;32.30;40.10;;;;;;1812607;77;21116;-72
2022/01/25 07:28:40;;;;;;;12.25;7.33;;;32.40;44.20;;;;;;1811425;78;21215;-72
2022/01/25 07:31:11;;;;;;;9.25;6.72;;;32.30;39.80;;;;;;1811559;78;21772;-73
2022/01/25 07:33:44;;;;;;;10.45;7.08;;;32.20;40.10;;;;;;1800986;78;21141;-72
2022/01/25 07:36:17;;;;;;;8.65;7.08;;;32.10;40.00;;;;;;1795559;77;21590;-73
2022/01/25 07:38:51;;;;;;;10.28;7.37;;;32.10;40.10;;;;;;1810371;77;21206;-72
2022/01/25 07:41:24;;;;;;;9.05;6.55;;;32.10;39.40;;;;;;1809667;77;21140;-72
2022/01/25 07:43:59;;;;;;;9.33;7.55;;;32.10;39.80;;;;;;1812184;77;21682;-73
2022/01/25 07:46:33;;;;;;;11.97;7.95;;;32.10;40.40;;;;;;1824796;78;21664;-73
2022/01/25 07:49:18;;;;;;;10.05;7.30;;;32.10;40.20;;;;;;1836532;77;21232;-74
2022/01/25 07:51:50;;;;;;;13.18;9.23;;;32.10;39.30;;;;;;1800701;78;21113;-72
2022/01/25 07:54:21;;;;;;;9.10;7.17;;;32.00;40.40;;;;;;1839778;76;21080;-87
2022/01/25 07:56:53;;;;;;;11.45;7.95;;;32.00;40.20;;;;;;1842140;76;21163;-87
2022/01/25 07:59:24;;;;;;;10.53;7.05;;;32.00;40.50;;;;;;1833498;76;21205;-86
2022/01/25 08:01:55;;;;;;;13.00;9.78;;;32.00;39.80;;;;;;1823230;76;21148;-86
2022/01/25 08:04:45;;;;;;;11.15;7.53;;;32.00;40.80;;;;;;1793514;77;21153;-86
2022/01/25 08:07:40;;;;;;;13.45;8.05;;;32.00;41.40;;;;;;1735810;80;21147;-86
2022/01/25 08:10:18;;;;;;;11.43;8.65;;;32.00;40.80;;;;;;1747114;78;21120;-86
2022/01/25 08:12:53;;;;;;;13.00;8.53;;;32.00;41.60;;;;;;1717551;81;21146;-86
2022/01/25 08:15:33;;;;;;;12.45;8.15;;;32.10;43.60;;;;;;1732405;80;21283;-86
2022/01/25 08:18:11;;;;;;;11.30;8.03;;;32.10;44.50;;;;;;1742188;80;21223;-86
2022/01/25 08:20:58;;;;;;;14.23;8.00;;;32.00;45.80;;;;;;1745227;79;21188;-86
2022/01/25 08:23:50;;;;;;;10.30;7.85;;;32.10;48.80;;;;;;1666654;84;21360;-85
2022/01/25 08:26:49;;;;;;;11.22;8.05;;;32.00;43.30;;;;;;1652553;85;21265;-86
2022/01/25 08:29:23;;;;;;;10.45;8.00;;;31.60;48.50;;;;;;1638811;84;21322;-85
2022/01/25 08:32:14;;;;;;;11.25;7.47;;;31.90;41.20;;;;;;1646369;85;21210;-84
2022/01/25 08:34:57;;;;;;;11.28;7.95;;;31.90;42.80;;;;;;1698940;84;21146;-86
2022/01/25 08:37:46;;;;;;;13.90;9.15;;;31.80;42.20;;;;;;1620444;85;21309;-87
2022/01/25 08:40:17;;;;;;;10.68;7.30;;;31.80;42.80;;;;;;1645365;85;21418;-84
2022/01/25 08:42:49;;;;;;;9.23;6.78;;;31.70;41.80;;;;;;1634212;86;21234;-86
2022/01/25 08:45:40;;;;;;;10.53;7.22;;;31.70;40.00;;;;;;1643538;82;21325;-84
2022/01/25 08:48:13;;;;;;;10.25;7.80;;;31.70;41.20;;;;;;1686627;82;21807;-85
2022/01/25 08:50:50;;;;;;;11.83;8.70;;;31.70;41.60;;;;;;1720305;81;21625;-86
2022/01/25 08:53:32;;;;;;;12.93;8.58;;;31.70;41.60;;;;;;1700573;82;21244;-85
2022/01/25 08:56:16;;;;;;;9.68;7.47;;;31.70;42.50;;;;;;1717286;81;21272;-86
2022/01/25 08:59:14;;;;;;;12.23;7.50;;;31.70;41.80;;;;;;1657802;83;21309;-85
2022/01/25 09:01:45;;;;;;;10.58;7.00;;;31.60;42.10;;;;;;1770369;78;21189;-86
2022/01/25 09:04:16;;;;;;;11.45;7.47;;;31.60;40.80;;;;;;1787852;78;21169;-86
2022/01/25 09:06:47;;;;;;;10.18;7.72;;;31.60;41.20;;;;;;1782245;78;21127;-86
2022/01/25 09:09:20;;;;;;;13.45;8.05;;;31.60;40.80;;;;;;1791259;78;21103;-85
2022/01/25 09:11:51;;;;;;;8.30;6.92;;;31.60;40.80;;;;;;1807894;78;21113;-86
2022/01/25 09:14:22;;;;;;;10.08;7.62;;;31.60;41.00;;;;;;1841944;76;21199;-84
2022/01/25 09:16:52;;;;;;;11.35;8.43;;;31.60;41.10;;;;;;1809626;77;21136;-85
2022/01/25 09:19:23;;;;;;;13.18;7.45;;;31.60;41.60;;;;;;1809529;78;21104;-86
2022/01/25 09:21:54;;;;;;;13.08;8.58;;;31.60;40.90;;;;;;1810198;79;21093;-84
2022/01/25 09:24:25;;;;;;;10.82;7.03;;;31.50;41.10;;;;;;1807751;79;21629;-84
2022/01/25 09:26:55;;;;;;;9.78;7.25;;;31.40;41.60;;;;;;1809554;79;21581;-84
2022/01/25 09:29:26;;;;;;;8.80;7.20;;;31.40;41.60;;;;;;1818711;79;21171;-84
2022/01/25 09:31:57;;;;;;;11.33;7.37;;;31.50;41.70;;;;;;1820740;79;21116;-84
2022/01/25 09:34:28;;;;;;;9.43;6.92;;;31.40;42.70;;;;;;1821534;79;21120;-84
2022/01/25 09:36:58;;;;;;;9.98;7.17;;;31.40;41.50;;;;;;1813558;79;21112;-85
2022/01/25 09:39:29;;;;;;;13.18;7.87;;;31.40;42.20;;;;;;1784534;79;21156;-84
2022/01/25 09:42:03;;;;;;;14.63;9.53;;;31.40;42.20;;;;;;1801533;78;21108;-83
2022/01/25 09:44:32;;;;;;;10.93;7.58;;;31.40;43.10;;;;;;1817519;78;21133;-83
2022/01/25 09:47:03;;;;;;;9.83;7.55;;;31.30;42.40;;;;;;1829917;78;21211;-83
2022/01/25 09:49:35;;;;;;;11.48;8.48;;;31.20;42.60;;;;;;1823350;78;21100;-84
2022/01/25 09:52:08;;;;;;;12.07;7.50;;;31.20;42.20;;;;;;1816270;78;21202;-83
2022/01/25 09:54:39;;;;;;;9.08;7.33;;;31.20;42.20;;;;;;1811480;79;21254;-85
2022/01/25 09:57:10;;;;;;;8.23;6.72;;;31.20;42.80;;;;;;1812428;79;21128;-84
2022/01/25 09:59:41;;;;;;;9.30;6.90;;;31.10;42.10;;;;;;1823809;78;21097;-84
2022/01/25 10:02:11;;;;;;;10.30;6.70;;;31.10;44.20;;;;;;1820514;78;21576;-83
2022/01/25 10:04:49;;;;;;;10.13;6.20;;;31.10;42.60;;;;;;1818265;78;21147;-84
2022/01/25 10:07:14;;;;;;;12.33;7.45;;;31.10;43.30;;;;;;1817624;79;21108;-84
2022/01/25 10:09:45;;;;;;;15.80;10.00;;;31.00;43.80;;;;;;1819263;79;21627;-83
2022/01/25 10:12:18;;;;;;;11.03;7.40;;;30.90;44.40;;;;;;1813492;78;21233;-84
2022/01/25 10:14:51;;;;;;;9.23;6.75;;;30.90;44.40;;;;;;1815546;78;21092;-84
2022/01/25 10:17:24;;;;;;;8.48;6.47;;;30.80;44.90;;;;;;1810430;78;21641;-84
2022/01/25 10:19:55;;;;;;;12.82;6.58;;;30.80;46.20;;;;;;1811521;78;21109;-85
2022/01/25 10:22:27;;;;;;;9.15;7.25;;;30.80;51.80;;;;;;1826339;78;21112;-83
2022/01/25 10:24:58;;;;;;;10.18;7.67;;;30.70;43.70;;;;;;1819486;78;21152;-85
2022/01/25 10:30:03;;;;;;;12.40;6.37;;;30.60;43.60;;;;;;1849266;76;21149;-85
2022/01/25 10:32:38;;;;;;;8.93;6.62;;;30.50;43.70;;;;;;1791634;78;21147;-85
2022/01/25 10:35:10;;;;;;;13.78;7.25;;;30.60;43.40;;;;;;1822753;77;21166;-84
2022/01/25 10:37:43;;;;;;;8.75;6.90;;;30.50;43.40;;;;;;1823505;77;21662;-84
2022/01/25 10:40:16;;;;;;;12.20;8.45;;;30.50;44.20;;;;;;1837223;77;21118;-84
2022/01/25 10:42:48;;;;;;;12.15;8.80;;;30.40;44.50;;;;;;1840553;77;21116;-84
2022/01/25 10:45:20;;;;;;;12.47;8.85;;;30.30;44.80;;;;;;1840469;77;21108;-84
2022/01/25 10:47:55;;;;;;;16.77;10.72;;;30.30;45.00;;;;;;1829405;76;21111;-85
2022/01/25 10:50:26;;;;;;;13.40;9.28;;;30.20;45.10;;;;;;1839848;76;21474;-84
2022/01/25 10:53:00;;;;;;;19.92;10.48;;;30.10;45.50;;;;;;1836457;76;21648;-84
2022/01/25 10:55:33;;;;;;;15.93;9.60;;;30.00;45.80;;;;;;1831205;76;21702;-84
2022/01/25 10:58:05;;;;;;;16.62;10.58;;;30.00;46.00;;;;;;1828002;77;21152;-82
2022/01/25 11:00:40;;;;;;;16.05;11.53;;;29.90;46.70;;;;;;1831909;77;21136;-82
2022/01/25 11:03:11;;;;;;;20.10;13.03;;;29.80;46.80;;;;;;1839164;77;21192;-83
2022/01/25 11:05:44;;;;;;;19.15;9.58;;;29.80;47.00;;;;;;1840863;77;21141;-82
2022/01/25 11:08:19;;;;;;;16.02;8.05;;;29.60;47.20;;;;;;1829448;78;21131;-83
2022/01/25 11:10:55;;;;;;;15.32;8.05;;;29.60;47.30;;;;;;1815315;77;21117;-83
2022/01/25 11:15:11;;;;;;;15.23;8.60;;;29.50;47.10;;;;;;2020296;69;22603;-84
2022/01/25 11:17:42;;;;;;;13.25;9.25;;;29.50;47.60;;;;;;1969111;71;21578;-84
2022/01/25 11:20:13;;;;;;;13.62;9.38;;;29.40;47.90;;;;;;1996749;71;21577;-85
2022/01/25 11:22:45;;;;;;;20.12;10.23;;;29.40;47.90;;;;;;1966529;72;21161;-85
2022/01/25 11:25:19;;;;;;;16.45;10.72;;;29.30;48.40;;;;;;1978745;72;21055;-85
2022/01/25 11:27:51;;;;;;;15.90;9.50;;;29.20;48.70;;;;;;1930527;74;21190;-85
2022/01/25 11:30:22;;;;;;;13.68;9.08;;;29.20;49.30;;;;;;1978424;71;21158;-85
2022/01/25 11:32:55;;;;;;;13.10;9.18;;;29.10;49.50;;;;;;1944878;72;21223;-85
2022/01/25 11:35:28;;;;;;;17.57;12.10;;;29.00;49.80;;;;;;1953249;72;21128;-84
2022/01/25 11:38:03;;;;;;;18.92;11.45;;;28.90;50.00;;;;;;1937272;73;21127;-83
2022/01/25 11:40:38;;;;;;;19.90;11.28;;;28.90;50.50;;;;;;1980732;71;21060;-85
2022/01/25 11:43:09;;;;;;;20.43;11.45;;;28.80;50.90;;;;;;1985085;71;21102;-84
2022/01/25 11:45:42;;;;;;;17.25;10.08;;;28.80;51.00;;;;;;1976702;72;21181;-84
2022/01/25 11:48:15;;;;;;;15.93;9.50;;;28.70;51.10;;;;;;1984312;71;21707;-83
2022/01/25 11:50:48;;;;;;;14.80;8.23;;;28.60;51.70;;;;;;1936917;73;21565;-85
2022/01/25 11:53:25;;;;;;;17.12;9.83;;;28.60;51.30;;;;;;1979584;70;21132;-85
2022/01/25 11:55:57;;;;;;;23.05;12.23;;;28.40;51.30;;;;;;1979282;70;21502;-85
2022/01/25 11:58:31;;;;;;;27.55;15.65;;;28.40;52.00;;;;;;1974708;71;21668;-84
2022/01/25 12:01:04;;;;;;;15.30;10.58;;;28.40;52.10;;;;;;1943279;73;21975;-84
2022/01/25 12:03:40;;;;;;;20.12;10.80;;;28.40;51.90;;;;;;1950948;72;21691;-84
2022/01/25 12:06:33;;;;;;;20.92;11.70;;;28.30;52.30;;;;;;1986916;71;21066;-84
2022/01/25 12:11:19;;;;;;;18.37;12.10;;;28.20;52.90;;;;;;1982530;72;21057;-84
2022/01/25 12:13:51;;;;;;;21.12;12.98;;;28.10;53.10;;;;;;1975367;71;21072;-85
2022/01/25 12:16:24;;;;;;;23.75;12.37;;;28.10;53.20;;;;;;1976185;71;21108;-85
2022/01/25 12:18:57;;;;;;;17.17;11.40;;;28.00;53.60;;;;;;1973672;72;21126;-85
2022/01/25 12:21:30;;;;;;;21.80;13.00;;;27.90;53.50;;;;;;1969428;71;21069;-83
2022/01/25 12:24:06;;;;;;;28.80;14.50;;;28.00;54.00;;;;;;1975349;72;21196;-84
2022/01/25 12:26:39;;;;;;;20.48;13.98;;;28.00;54.20;;;;;;1975186;71;21073;-85
2022/01/25 12:29:14;;;;;;;21.82;14.43;;;27.90;54.30;;;;;;1986288;70;21171;-84
2022/01/25 12:31:45;;;;;;;27.07;15.32;;;27.90;54.20;;;;;;1972542;71;21163;-84
2022/01/25 12:34:19;;;;;;;28.62;15.45;;;27.90;54.40;;;;;;1973651;71;21138;-85
2022/01/25 12:36:50;;;;;;;27.40;14.23;;;27.90;54.60;;;;;;1922906;74;21143;-87
2022/01/25 12:39:26;;;;;;;23.18;14.58;;;27.90;54.70;;;;;;1982903;71;21046;-85
2022/01/25 12:41:59;;;;;;;26.90;16.10;;;27.90;54.90;;;;;;1989093;71;21065;-84
2022/01/25 12:44:30;;;;;;;22.82;16.40;;;27.80;55.00;;;;;;1973245;71;21131;-84
2022/01/25 12:47:04;;;;;;;25.70;14.83;;;27.80;55.20;;;;;;1984885;70;21090;-86
2022/01/25 12:49:36;;;;;;;22.13;16.30;;;27.80;55.30;;;;;;1990590;71;21631;-84
2022/01/25 12:52:07;;;;;;;25.85;19.40;;;27.80;55.30;;;;;;1982768;71;21117;-84
2022/01/25 12:54:38;;;;;;;27.75;18.45;;;27.80;55.80;;;;;;1980280;71;21137;-85
2022/01/25 12:57:14;;;;;;;30.43;19.00;;;27.80;55.80;;;;;;1977253;71;21111;-84
2022/01/25 12:59:42;;;;;;;33.65;19.98;;;27.80;55.80;;;;;;1985417;70;21173;-84
2022/01/25 13:02:18;;;;;;;31.10;20.02;;;27.80;55.90;;;;;;1973508;71;21653;-83
2022/01/25 13:04:49;;;;;;;27.17;17.80;;;27.80;55.90;;;;;;1993371;71;21137;-84
2022/01/25 13:07:21;;;;;;;28.17;18.55;;;27.90;55.90;;;;;;1973493;71;21041;-85
2022/01/25 13:09:55;;;;;;;27.20;18.07;;;27.80;55.80;;;;;;1936159;73;21163;-85
2022/01/25 13:12:54;;;;;;;26.97;18.87;;;27.80;55.80;;;;;;1930200;73;21213;-85
2022/01/25 13:18:03;;;;;;;30.17;18.92;;;27.80;56.00;;;;;;1969463;71;21103;-85
2022/01/25 13:20:34;;;;;;;31.52;18.52;;;27.80;56.10;;;;;;1935104;72;21772;-83
2022/01/25 13:23:05;;;;;;;32.55;20.12;;;27.80;56.40;;;;;;1953116;72;21214;-84
2022/01/25 13:28:32;;;;;;;32.75;20.12;;;27.80;56.80;;;;;;1947662;72;21150;-85
2022/01/25 13:30:45;;;;;;;34.48;22.25;;;27.80;56.70;;;;;;1949374;72;21076;-85
2022/01/25 13:33:24;;;;;;;33.40;20.82;;;27.80;57.10;;;;;;1943207;72;21159;-83
2022/01/25 13:35:56;;;;;;;32.83;20.37;;;27.70;57.10;;;;;;1944827;72;21171;-85
2022/01/25 13:38:30;;;;;;;27.20;19.50;;;27.70;57.20;;;;;;1934958;72;21180;-86
2022/01/25 13:46:13;;;;;;;27.73;20.90;;;27.50;57.60;;;;;;1946091;72;21682;-86
2022/01/25 13:48:48;;;;;;;34.90;21.43;;;27.50;57.80;;;;;;1971485;72;21241;-84
2022/01/25 13:51:20;;;;;;;30.55;21.10;;;27.50;58.00;;;;;;1968719;71;21077;-85
2022/01/25 13:53:53;;;;;;;38.70;22.32;;;27.40;58.20;;;;;;1957397;71;21163;-85
2022/01/25 13:56:27;;;;;;;38.48;20.25;;;27.40;58.30;;;;;;1965518;71;21080;-85
2022/01/25 13:59:06;;;;;;;37.55;21.85;;;27.40;58.70;;;;;;1901149;73;21169;-82
2022/01/25 14:01:40;;;;;;;33.33;21.75;;;27.30;59.00;;;;;;1953902;72;21182;-85
2022/01/25 14:04:13;;;;;;;32.95;21.52;;;27.10;58.80;;;;;;1961863;71;21053;-85
2022/01/25 14:06:46;;;;;;;31.80;20.65;;;27.10;59.60;;;;;;1960212;72;21197;-85
2022/01/25 14:09:24;;;;;;;33.38;20.68;;;27.00;59.80;;;;;;1955196;72;21148;-83
2022/01/25 14:24:38;;;;;;;42.98;23.25;;;26.60;61.80;;;;;;1931809;72;21121;-84
2022/01/25 14:27:11;;;;;;;45.90;23.57;;;26.60;62.10;;;;;;1927741;70;21536;-84
2022/01/25 14:29:42;;;;;;;43.70;25.52;;;26.50;62.60;;;;;;1969319;70;21205;-85
2022/01/25 14:32:13;;;;;;;51.05;27.35;;;26.40;63.00;;;;;;1945876;72;21176;-84
2022/01/25 14:34:44;;;;;;;51.73;26.33;;;26.40;63.20;;;;;;1957481;72;21185;-85
2022/01/25 14:37:16;;;;;;;47.43;26.80;;;26.40;63.70;;;;;;1964397;72;21552;-84
2022/01/25 14:39:46;;;;;;;40.63;26.68;;;26.30;63.90;;;;;;1962699;72;21610;-84
2022/01/25 14:42:18;;;;;;;43.63;24.57;;;26.20;64.20;;;;;;1969059;72;21159;-84
2022/01/25 14:44:50;;;;;;;42.23;24.60;;;26.10;64.70;;;;;;1971220;72;21547;-85
2022/01/25 14:47:23;;;;;;;40.63;24.02;;;26.10;65.10;;;;;;1973625;72;21552;-84
2022/01/25 14:49:59;;;;;;;44.18;25.90;;;26.10;65.30;;;;;;1955566;72;21201;-85
2022/01/25 14:52:25;;;;;;;45.45;24.57;;;26.10;65.80;;;;;;1968581;72;21192;-84
2022/01/25 14:54:56;;;;;;;47.95;24.02;;;26.00;66.10;;;;;;1965542;72;21173;-85
2022/01/25 14:57:37;;;;;;;42.35;23.60;;;26.00;66.50;;;;;;1963867;72;21595;-85
2022/01/25 15:00:00;;;;;;;46.80;23.60;;;25.90;66.70;;;;;;1945248;72;21174;-85
2022/01/25 15:02:31;;;;;;;40.98;23.42;;;25.90;67.00;;;;;;1952435;72;21189;-85
2022/01/25 15:05:03;;;;;;;42.25;23.38;;;25.80;67.30;;;;;;1956297;72;21147;-86
2022/01/25 15:07:38;;;;;;;43.25;22.02;;;25.80;67.70;;;;;;1954281;71;21146;-85
2022/01/25 15:10:10;;;;;;;46.85;23.05;;;25.80;67.90;;;;;;1943531;73;21540;-85
2022/01/25 15:12:44;;;;;;;48.75;24.77;;;25.80;68.00;;;;;;1948667;73;21201;-84